sensor_id;sensor_type;location;lat;lon;timestamp;temperature;humidity
15609;DHT22;64278;45.642;13.756;2023-04-25T00:02:03;23.00;55.60
15609;DHT22;64278;45.642;13.756;2023-04-25T00:04:29;23.10;55.70
15609;DHT22;64278;45.642;13.756;2023-04-25T00:06:55;23.10;55.70
15609;DHT22;64278;45.642;13.756;2023-04-25T00:09:21;23.10;55.80
15609;DHT22;64278;45.642;13.756;2023-04-25T00:11:47;23.00;55.80
15609;DHT22;64278;45.642;13.756;2023-04-25T00:14:13;23.00;55.80
15609;DHT22;64278;45.642;13.756;2023-04-25T00:16:39;23.00;55.80
15609;DHT22;64278;45.642;13.756;2023-04-25T00:19:06;23.00;55.70
15609;DHT22;64278;45.642;13.756;2023-04-25T00:21:32;23.00;55.60
15609;DHT22;64278;45.642;13.756;2023-04-25T00:23:58;23.00;55.60
15609;DHT22;64278;45.642;13.756;2023-04-25T00:26:24;23.00;55.70
15609;DHT22;64278;45.642;13.756;2023-04-25T00:28:50;23.00;55.70
15609;DHT22;64278;45.642;13.756;2023-04-25T00:31:16;22.90;55.70
15609;DHT22;64278;45.642;13.756;2023-04-25T00:33:41;22.90;55.70
15609;DHT22;64278;45.642;13.756;2023-04-25T00:36:07;22.90;55.80
15609;DHT22;64278;45.642;13.756;2023-04-25T00:38:33;22.90;55.80
15609;DHT22;64278;45.642;13.756;2023-04-25T00:40:59;22.90;56.60
15609;DHT22;64278;45.642;13.756;2023-04-25T00:43:28;22.90;55.90
15609;DHT22;64278;45.642;13.756;2023-04-25T00:45:56;22.90;56.00
15609;DHT22;64278;45.642;13.756;2023-04-25T00:48:23;22.90;56.00
15609;DHT22;64278;45.642;13.756;2023-04-25T00:50:53;22.80;56.00
15609;DHT22;64278;45.642;13.756;2023-04-25T00:53:23;22.80;56.00
15609;DHT22;64278;45.642;13.756;2023-04-25T00:55:49;22.80;55.90
15609;DHT22;64278;45.642;13.756;2023-04-25T00:58:25;22.80;55.90
15609;DHT22;64278;45.642;13.756;2023-04-25T01:00:51;22.80;55.90
15609;DHT22;64278;45.642;13.756;2023-04-25T01:03:18;22.80;56.00
15609;DHT22;64278;45.642;13.756;2023-04-25T01:05:47;22.80;56.00
15609;DHT22;64278;45.642;13.756;2023-04-25T01:08:13;22.80;56.00
15609;DHT22;64278;45.642;13.756;2023-04-25T01:10:39;22.80;56.10
15609;DHT22;64278;45.642;13.756;2023-04-25T01:13:05;22.80;56.10
15609;DHT22;64278;45.642;13.756;2023-04-25T01:15:31;22.80;56.10
15609;DHT22;64278;45.642;13.756;2023-04-25T01:17:57;22.80;56.20
15609;DHT22;64278;45.642;13.756;2023-04-25T01:20:24;22.70;56.10
15609;DHT22;64278;45.642;13.756;2023-04-25T01:22:53;22.70;56.10
15609;DHT22;64278;45.642;13.756;2023-04-25T01:25:19;22.70;56.00
15609;DHT22;64278;45.642;13.756;2023-04-25T01:27:45;22.70;56.00
15609;DHT22;64278;45.642;13.756;2023-04-25T01:30:11;22.70;56.10
15609;DHT22;64278;45.642;13.756;2023-04-25T01:32:37;22.70;56.10
15609;DHT22;64278;45.642;13.756;2023-04-25T01:35:11;22.70;56.20
15609;DHT22;64278;45.642;13.756;2023-04-25T01:37:38;22.70;56.30
15609;DHT22;64278;45.642;13.756;2023-04-25T01:40:05;22.70;56.30
15609;DHT22;64278;45.642;13.756;2023-04-25T01:42:32;22.70;56.30
15609;DHT22;64278;45.642;13.756;2023-04-25T01:44:57;22.70;56.30
15609;DHT22;64278;45.642;13.756;2023-04-25T01:47:23;22.70;56.40
15609;DHT22;64278;45.642;13.756;2023-04-25T01:49:49;22.70;56.40
15609;DHT22;64278;45.642;13.756;2023-04-25T01:52:15;22.70;56.40
15609;DHT22;64278;45.642;13.756;2023-04-25T01:54:41;22.70;56.50
15609;DHT22;64278;45.642;13.756;2023-04-25T01:57:10;22.70;56.60
15609;DHT22;64278;45.642;13.756;2023-04-25T01:59:36;22.70;56.50
15609;DHT22;64278;45.642;13.756;2023-04-25T02:02:02;22.70;56.60
15609;DHT22;64278;45.642;13.756;2023-04-25T02:04:31;22.70;56.60
15609;DHT22;64278;45.642;13.756;2023-04-25T02:06:57;22.60;56.60
15609;DHT22;64278;45.642;13.756;2023-04-25T02:09:23;22.60;56.60
15609;DHT22;64278;45.642;13.756;2023-04-25T02:11:49;22.70;56.60
15609;DHT22;64278;45.642;13.756;2023-04-25T02:14:15;22.60;56.60
15609;DHT22;64278;45.642;13.756;2023-04-25T02:16:40;22.60;56.60
15609;DHT22;64278;45.642;13.756;2023-04-25T02:19:06;22.60;56.60
15609;DHT22;64278;45.642;13.756;2023-04-25T02:21:32;22.60;56.70
15609;DHT22;64278;45.642;13.756;2023-04-25T02:24:01;22.60;56.70
15609;DHT22;64278;45.642;13.756;2023-04-25T02:26:26;22.60;56.70
15609;DHT22;64278;45.642;13.756;2023-04-25T02:28:52;22.60;56.80
15609;DHT22;64278;45.642;13.756;2023-04-25T02:31:18;22.60;56.80
15609;DHT22;64278;45.642;13.756;2023-04-25T02:33:44;22.60;56.80
15609;DHT22;64278;45.642;13.756;2023-04-25T02:36:10;22.60;56.80
15609;DHT22;64278;45.642;13.756;2023-04-25T02:38:35;22.60;56.90
15609;DHT22;64278;45.642;13.756;2023-04-25T02:41:01;22.60;56.90
15609;DHT22;64278;45.642;13.756;2023-04-25T02:43:27;22.60;57.50
15609;DHT22;64278;45.642;13.756;2023-04-25T02:45:52;22.60;56.90
15609;DHT22;64278;45.642;13.756;2023-04-25T02:48:18;22.60;56.90
15609;DHT22;64278;45.642;13.756;2023-04-25T02:50:44;22.60;56.90
15609;DHT22;64278;45.642;13.756;2023-04-25T02:53:10;22.60;56.90
15609;DHT22;64278;45.642;13.756;2023-04-25T02:55:36;22.60;56.90
15609;DHT22;64278;45.642;13.756;2023-04-25T02:58:01;22.60;56.90
15609;DHT22;64278;45.642;13.756;2023-04-25T03:00:27;22.50;56.80
15609;DHT22;64278;45.642;13.756;2023-04-25T03:02:53;22.50;56.90
15609;DHT22;64278;45.642;13.756;2023-04-25T03:05:19;22.50;56.90
15609;DHT22;64278;45.642;13.756;2023-04-25T03:07:45;22.50;56.80
15609;DHT22;64278;45.642;13.756;2023-04-25T03:10:11;22.50;56.80
15609;DHT22;64278;45.642;13.756;2023-04-25T03:12:37;22.50;57.00
15609;DHT22;64278;45.642;13.756;2023-04-25T03:15:03;22.50;57.00
15609;DHT22;64278;45.642;13.756;2023-04-25T03:17:29;22.50;57.00
15609;DHT22;64278;45.642;13.756;2023-04-25T03:19:55;22.50;57.00
15609;DHT22;64278;45.642;13.756;2023-04-25T03:22:21;22.50;57.00
15609;DHT22;64278;45.642;13.756;2023-04-25T03:24:47;22.50;57.00
15609;DHT22;64278;45.642;13.756;2023-04-25T03:27:13;22.50;57.00
15609;DHT22;64278;45.642;13.756;2023-04-25T03:29:38;22.50;57.00
15609;DHT22;64278;45.642;13.756;2023-04-25T03:32:06;22.50;57.00
15609;DHT22;64278;45.642;13.756;2023-04-25T03:34:31;22.50;57.00
15609;DHT22;64278;45.642;13.756;2023-04-25T03:36:57;22.50;57.00
15609;DHT22;64278;45.642;13.756;2023-04-25T03:39:23;22.50;57.00
15609;DHT22;64278;45.642;13.756;2023-04-25T03:41:48;22.50;57.00
15609;DHT22;64278;45.642;13.756;2023-04-25T03:44:14;22.50;57.00
15609;DHT22;64278;45.642;13.756;2023-04-25T03:46:40;22.50;57.00
15609;DHT22;64278;45.642;13.756;2023-04-25T03:49:05;22.50;57.00
15609;DHT22;64278;45.642;13.756;2023-04-25T03:51:31;22.50;57.00
15609;DHT22;64278;45.642;13.756;2023-04-25T03:53:57;22.40;56.90
15609;DHT22;64278;45.642;13.756;2023-04-25T03:56:23;22.40;56.90
15609;DHT22;64278;45.642;13.756;2023-04-25T03:58:49;22.40;56.80
15609;DHT22;64278;45.642;13.756;2023-04-25T04:01:15;22.40;56.80
15609;DHT22;64278;45.642;13.756;2023-04-25T04:03:40;22.40;56.80
15609;DHT22;64278;45.642;13.756;2023-04-25T04:06:07;22.40;56.80
15609;DHT22;64278;45.642;13.756;2023-04-25T04:08:33;22.40;56.80
15609;DHT22;64278;45.642;13.756;2023-04-25T04:10:59;22.40;56.80
15609;DHT22;64278;45.642;13.756;2023-04-25T04:13:28;22.40;56.80
15609;DHT22;64278;45.642;13.756;2023-04-25T04:15:55;22.40;56.80
15609;DHT22;64278;45.642;13.756;2023-04-25T04:18:21;22.40;56.80
15609;DHT22;64278;45.642;13.756;2023-04-25T04:20:46;22.40;56.80
15609;DHT22;64278;45.642;13.756;2023-04-25T04:23:12;22.40;56.80
15609;DHT22;64278;45.642;13.756;2023-04-25T04:25:38;22.40;56.80
15609;DHT22;64278;45.642;13.756;2023-04-25T04:28:05;22.40;56.80
15609;DHT22;64278;45.642;13.756;2023-04-25T04:30:31;22.40;56.80
15609;DHT22;64278;45.642;13.756;2023-04-25T04:32:58;22.40;56.80
15609;DHT22;64278;45.642;13.756;2023-04-25T04:35:26;22.40;56.80
15609;DHT22;64278;45.642;13.756;2023-04-25T04:37:52;22.40;56.80
15609;DHT22;64278;45.642;13.756;2023-04-25T04:40:18;22.40;56.80
15609;DHT22;64278;45.642;13.756;2023-04-25T04:42:44;22.30;56.80
15609;DHT22;64278;45.642;13.756;2023-04-25T04:45:13;22.40;56.80
15609;DHT22;64278;45.642;13.756;2023-04-25T04:47:40;22.40;56.80
15609;DHT22;64278;45.642;13.756;2023-04-25T04:50:09;22.40;56.80
15609;DHT22;64278;45.642;13.756;2023-04-25T04:52:35;22.40;56.80
15609;DHT22;64278;45.642;13.756;2023-04-25T04:55:03;22.30;56.80
15609;DHT22;64278;45.642;13.756;2023-04-25T04:57:29;22.40;56.80
15609;DHT22;64278;45.642;13.756;2023-04-25T04:59:54;22.30;56.80
15609;DHT22;64278;45.642;13.756;2023-04-25T05:02:20;22.30;56.80
15609;DHT22;64278;45.642;13.756;2023-04-25T05:04:46;22.30;56.80
15609;DHT22;64278;45.642;13.756;2023-04-25T05:07:12;22.30;56.80
15609;DHT22;64278;45.642;13.756;2023-04-25T05:09:38;22.30;56.80
15609;DHT22;64278;45.642;13.756;2023-04-25T05:12:03;22.30;56.80
15609;DHT22;64278;45.642;13.756;2023-04-25T05:14:29;22.30;56.80
15609;DHT22;64278;45.642;13.756;2023-04-25T05:16:55;22.30;56.80
15609;DHT22;64278;45.642;13.756;2023-04-25T05:19:21;22.30;56.80
15609;DHT22;64278;45.642;13.756;2023-04-25T05:21:47;22.30;56.80
15609;DHT22;64278;45.642;13.756;2023-04-25T05:24:12;22.30;56.80
15609;DHT22;64278;45.642;13.756;2023-04-25T05:26:38;22.30;56.80
15609;DHT22;64278;45.642;13.756;2023-04-25T05:29:04;22.30;56.80
15609;DHT22;64278;45.642;13.756;2023-04-25T05:31:31;22.30;56.80
15609;DHT22;64278;45.642;13.756;2023-04-25T05:33:57;22.30;56.80
15609;DHT22;64278;45.642;13.756;2023-04-25T05:36:23;22.30;56.80
15609;DHT22;64278;45.642;13.756;2023-04-25T05:38:49;22.30;56.80
15609;DHT22;64278;45.642;13.756;2023-04-25T05:41:14;22.30;56.80
15609;DHT22;64278;45.642;13.756;2023-04-25T05:43:40;22.30;56.80
15609;DHT22;64278;45.642;13.756;2023-04-25T05:46:11;22.30;56.80
15609;DHT22;64278;45.642;13.756;2023-04-25T05:48:37;22.30;56.80
15609;DHT22;64278;45.642;13.756;2023-04-25T05:51:03;22.30;56.80
15609;DHT22;64278;45.642;13.756;2023-04-25T05:53:29;22.30;56.80
15609;DHT22;64278;45.642;13.756;2023-04-25T05:55:54;22.30;56.80
15609;DHT22;64278;45.642;13.756;2023-04-25T05:58:20;22.30;56.80
15609;DHT22;64278;45.642;13.756;2023-04-25T06:00:46;22.20;56.70
15609;DHT22;64278;45.642;13.756;2023-04-25T06:03:12;22.20;56.70
15609;DHT22;64278;45.642;13.756;2023-04-25T06:05:41;22.30;56.70
15609;DHT22;64278;45.642;13.756;2023-04-25T06:08:07;22.20;56.60
15609;DHT22;64278;45.642;13.756;2023-04-25T06:10:32;22.30;56.70
15609;DHT22;64278;45.642;13.756;2023-04-25T06:12:58;22.30;56.70
15609;DHT22;64278;45.642;13.756;2023-04-25T06:15:24;22.20;56.60
15609;DHT22;64278;45.642;13.756;2023-04-25T06:17:49;22.20;56.60
15609;DHT22;64278;45.642;13.756;2023-04-25T06:20:15;22.20;56.50
15609;DHT22;64278;45.642;13.756;2023-04-25T06:22:41;22.20;56.50
15609;DHT22;64278;45.642;13.756;2023-04-25T06:25:07;22.20;56.60
15609;DHT22;64278;45.642;13.756;2023-04-25T06:27:34;22.20;56.60
15609;DHT22;64278;45.642;13.756;2023-04-25T06:29:59;22.20;56.60
15609;DHT22;64278;45.642;13.756;2023-04-25T06:32:25;22.20;56.60
15609;DHT22;64278;45.642;13.756;2023-04-25T06:34:53;22.30;56.70
15609;DHT22;64278;45.642;13.756;2023-04-25T06:37:18;22.20;56.60
15609;DHT22;64278;45.642;13.756;2023-04-25T06:39:44;22.20;56.60
15609;DHT22;64278;45.642;13.756;2023-04-25T06:42:10;22.20;56.60
15609;DHT22;64278;45.642;13.756;2023-04-25T06:44:36;22.20;56.60
15609;DHT22;64278;45.642;13.756;2023-04-25T06:47:01;22.20;56.60
15609;DHT22;64278;45.642;13.756;2023-04-25T06:49:27;22.20;56.60
15609;DHT22;64278;45.642;13.756;2023-04-25T06:51:53;22.20;56.60
15609;DHT22;64278;45.642;13.756;2023-04-25T06:54:19;22.20;56.60
15609;DHT22;64278;45.642;13.756;2023-04-25T06:56:44;22.20;56.60
15609;DHT22;64278;45.642;13.756;2023-04-25T06:59:10;22.20;56.60
15609;DHT22;64278;45.642;13.756;2023-04-25T07:01:36;22.20;56.60
15609;DHT22;64278;45.642;13.756;2023-04-25T07:04:01;22.20;56.60
15609;DHT22;64278;45.642;13.756;2023-04-25T07:06:27;22.20;56.60
15609;DHT22;64278;45.642;13.756;2023-04-25T07:08:53;22.10;56.50
15609;DHT22;64278;45.642;13.756;2023-04-25T07:11:19;22.20;56.60
15609;DHT22;64278;45.642;13.756;2023-04-25T07:13:45;22.20;56.50
15609;DHT22;64278;45.642;13.756;2023-04-25T07:16:10;22.10;56.50
15609;DHT22;64278;45.642;13.756;2023-04-25T07:18:36;22.10;56.50
15609;DHT22;64278;45.642;13.756;2023-04-25T07:21:02;22.20;56.50
15609;DHT22;64278;45.642;13.756;2023-04-25T07:23:27;22.20;56.40
15609;DHT22;64278;45.642;13.756;2023-04-25T07:25:53;22.20;56.40
15609;DHT22;64278;45.642;13.756;2023-04-25T07:28:19;22.10;56.30
15609;DHT22;64278;45.642;13.756;2023-04-25T07:30:44;22.10;56.30
15609;DHT22;64278;45.642;13.756;2023-04-25T07:33:10;22.10;56.30
15609;DHT22;64278;45.642;13.756;2023-04-25T07:35:36;22.10;56.30
15609;DHT22;64278;45.642;13.756;2023-04-25T07:38:02;22.10;56.30
15609;DHT22;64278;45.642;13.756;2023-04-25T07:40:28;22.10;56.30
15609;DHT22;64278;45.642;13.756;2023-04-25T07:42:54;22.10;56.30
15609;DHT22;64278;45.642;13.756;2023-04-25T07:45:19;22.10;56.30
15609;DHT22;64278;45.642;13.756;2023-04-25T07:47:45;22.10;56.20
15609;DHT22;64278;45.642;13.756;2023-04-25T07:50:11;22.10;56.20
15609;DHT22;64278;45.642;13.756;2023-04-25T07:52:37;22.10;56.20
15609;DHT22;64278;45.642;13.756;2023-04-25T07:55:02;22.10;56.20
15609;DHT22;64278;45.642;13.756;2023-04-25T07:57:29;22.10;56.20
15609;DHT22;64278;45.642;13.756;2023-04-25T07:59:55;22.10;56.10
15609;DHT22;64278;45.642;13.756;2023-04-25T08:02:20;22.10;56.20
15609;DHT22;64278;45.642;13.756;2023-04-25T08:04:46;22.10;56.20
15609;DHT22;64278;45.642;13.756;2023-04-25T08:07:12;22.10;56.10
15609;DHT22;64278;45.642;13.756;2023-04-25T08:09:37;22.10;56.20
15609;DHT22;64278;45.642;13.756;2023-04-25T08:12:04;22.10;56.30
15609;DHT22;64278;45.642;13.756;2023-04-25T08:14:30;22.00;56.30
15609;DHT22;64278;45.642;13.756;2023-04-25T08:17:01;22.00;56.30
15609;DHT22;64278;45.642;13.756;2023-04-25T08:19:29;22.00;56.30
15609;DHT22;64278;45.642;13.756;2023-04-25T08:21:54;22.00;56.30
15609;DHT22;64278;45.642;13.756;2023-04-25T08:24:22;22.10;56.30
15609;DHT22;64278;45.642;13.756;2023-04-25T08:26:48;22.00;56.30
15609;DHT22;64278;45.642;13.756;2023-04-25T08:29:13;22.00;56.30
15609;DHT22;64278;45.642;13.756;2023-04-25T08:31:39;22.00;56.30
15609;DHT22;64278;45.642;13.756;2023-04-25T08:34:05;22.00;56.20
15609;DHT22;64278;45.642;13.756;2023-04-25T08:36:31;22.00;56.20
15609;DHT22;64278;45.642;13.756;2023-04-25T08:38:58;22.00;56.30
15609;DHT22;64278;45.642;13.756;2023-04-25T08:41:24;22.00;56.30
15609;DHT22;64278;45.642;13.756;2023-04-25T08:43:51;22.00;56.30
15609;DHT22;64278;45.642;13.756;2023-04-25T08:46:19;22.00;56.30
15609;DHT22;64278;45.642;13.756;2023-04-25T08:48:45;22.00;56.30
15609;DHT22;64278;45.642;13.756;2023-04-25T08:51:17;22.00;56.30
15609;DHT22;64278;45.642;13.756;2023-04-25T08:53:46;22.00;56.40
15609;DHT22;64278;45.642;13.756;2023-04-25T08:56:16;22.00;56.40
15609;DHT22;64278;45.642;13.756;2023-04-25T08:58:43;22.00;56.40
15609;DHT22;64278;45.642;13.756;2023-04-25T09:01:11;22.00;56.40
15609;DHT22;64278;45.642;13.756;2023-04-25T09:03:37;22.00;56.40
15609;DHT22;64278;45.642;13.756;2023-04-25T09:06:03;22.00;56.10
15609;DHT22;64278;45.642;13.756;2023-04-25T09:08:29;21.80;53.20
15609;DHT22;64278;45.642;13.756;2023-04-25T09:10:55;21.60;52.90
15609;DHT22;64278;45.642;13.756;2023-04-25T09:13:27;21.40;53.70
15609;DHT22;64278;45.642;13.756;2023-04-25T09:15:56;21.10;54.90
15609;DHT22;64278;45.642;13.756;2023-04-25T09:20:49;20.70;56.00
15609;DHT22;64278;45.642;13.756;2023-04-25T09:23:15;20.60;56.40
15609;DHT22;64278;45.642;13.756;2023-04-25T09:25:40;20.60;57.00
15609;DHT22;64278;45.642;13.756;2023-04-25T09:28:08;20.70;56.80
15609;DHT22;64278;45.642;13.756;2023-04-25T09:30:36;20.70;56.10
15609;DHT22;64278;45.642;13.756;2023-04-25T09:33:06;20.60;56.00
15609;DHT22;64278;45.642;13.756;2023-04-25T09:35:43;20.60;55.90
15609;DHT22;64278;45.642;13.756;2023-04-25T09:38:13;20.50;56.10
15609;DHT22;64278;45.642;13.756;2023-04-25T09:40:43;20.40;56.30
15609;DHT22;64278;45.642;13.756;2023-04-25T09:43:20;20.40;56.40
15609;DHT22;64278;45.642;13.756;2023-04-25T09:45:46;20.40;56.70
15609;DHT22;64278;45.642;13.756;2023-04-25T09:48:22;20.40;56.50
15609;DHT22;64278;45.642;13.756;2023-04-25T09:53:31;20.30;56.40
15609;DHT22;64278;45.642;13.756;2023-04-25T09:55:59;20.20;56.50
15609;DHT22;64278;45.642;13.756;2023-04-25T09:58:25;20.20;56.50
15609;DHT22;64278;45.642;13.756;2023-04-25T10:00:58;20.10;56.60
15609;DHT22;64278;45.642;13.756;2023-04-25T10:03:25;20.10;56.60
15609;DHT22;64278;45.642;13.756;2023-04-25T10:05:52;20.00;56.50
15609;DHT22;64278;45.642;13.756;2023-04-25T10:08:19;20.00;56.40
15609;DHT22;64278;45.642;13.756;2023-04-25T10:10:46;20.00;56.50
15609;DHT22;64278;45.642;13.756;2023-04-25T10:13:14;19.90;56.40
15609;DHT22;64278;45.642;13.756;2023-04-25T10:15:41;20.00;56.40
15609;DHT22;64278;45.642;13.756;2023-04-25T10:18:07;19.90;56.40
15609;DHT22;64278;45.642;13.756;2023-04-25T10:20:33;20.00;56.60
15609;DHT22;64278;45.642;13.756;2023-04-25T10:23:09;20.00;56.70
15609;DHT22;64278;45.642;13.756;2023-04-25T10:25:36;20.00;58.20
15609;DHT22;64278;45.642;13.756;2023-04-25T10:28:03;20.20;59.50
15609;DHT22;64278;45.642;13.756;2023-04-25T10:30:29;20.40;59.90
15609;DHT22;64278;45.642;13.756;2023-04-25T10:32:55;20.50;60.00
15609;DHT22;64278;45.642;13.756;2023-04-25T10:35:26;20.60;60.00
15609;DHT22;64278;45.642;13.756;2023-04-25T10:38:08;20.70;60.30
15609;DHT22;64278;45.642;13.756;2023-04-25T10:40:35;20.70;60.30
15609;DHT22;64278;45.642;13.756;2023-04-25T10:45:59;20.90;59.90
15609;DHT22;64278;45.642;13.756;2023-04-25T10:48:26;20.90;59.60
15609;DHT22;64278;45.642;13.756;2023-04-25T10:51:11;21.00;59.50
15609;DHT22;64278;45.642;13.756;2023-04-25T10:53:37;21.00;59.40
15609;DHT22;64278;45.642;13.756;2023-04-25T10:56:18;21.10;59.30
15609;DHT22;64278;45.642;13.756;2023-04-25T10:58:45;21.10;59.40
15609;DHT22;64278;45.642;13.756;2023-04-25T11:01:13;21.10;59.30
15609;DHT22;64278;45.642;13.756;2023-04-25T11:03:43;21.20;59.30
15609;DHT22;64278;45.642;13.756;2023-04-25T11:06:29;21.20;59.30
15609;DHT22;64278;45.642;13.756;2023-04-25T11:09:00;21.20;59.40
15609;DHT22;64278;45.642;13.756;2023-04-25T11:11:26;21.20;59.30
15609;DHT22;64278;45.642;13.756;2023-04-25T11:13:52;21.30;59.40
15609;DHT22;64278;45.642;13.756;2023-04-25T11:16:18;21.30;59.40
15609;DHT22;64278;45.642;13.756;2023-04-25T11:18:44;21.30;59.40
15609;DHT22;64278;45.642;13.756;2023-04-25T11:21:10;21.30;59.30
15609;DHT22;64278;45.642;13.756;2023-04-25T11:23:36;21.30;59.20
15609;DHT22;64278;45.642;13.756;2023-04-25T11:26:03;21.30;59.10
15609;DHT22;64278;45.642;13.756;2023-04-25T11:28:29;21.30;59.00
15609;DHT22;64278;45.642;13.756;2023-04-25T11:30:55;21.30;58.80
15609;DHT22;64278;45.642;13.756;2023-04-25T11:33:25;21.30;58.70
15609;DHT22;64278;45.642;13.756;2023-04-25T11:35:54;21.30;58.70
15609;DHT22;64278;45.642;13.756;2023-04-25T11:38:21;21.30;58.60
15609;DHT22;64278;45.642;13.756;2023-04-25T11:40:51;21.30;58.50
15609;DHT22;64278;45.642;13.756;2023-04-25T11:43:17;21.30;58.40
15609;DHT22;64278;45.642;13.756;2023-04-25T11:45:47;21.30;58.40
15609;DHT22;64278;45.642;13.756;2023-04-25T11:48:13;21.30;58.30
15609;DHT22;64278;45.642;13.756;2023-04-25T11:50:39;21.30;58.30
15609;DHT22;64278;45.642;13.756;2023-04-25T11:53:05;21.30;58.20
15609;DHT22;64278;45.642;13.756;2023-04-25T11:55:31;21.30;58.10
15609;DHT22;64278;45.642;13.756;2023-04-25T11:58:00;21.30;58.00
15609;DHT22;64278;45.642;13.756;2023-04-25T12:00:26;21.30;57.90
15609;DHT22;64278;45.642;13.756;2023-04-25T12:02:56;21.30;57.90
15609;DHT22;64278;45.642;13.756;2023-04-25T12:05:27;21.30;57.80
15609;DHT22;64278;45.642;13.756;2023-04-25T12:07:54;21.20;57.60
15609;DHT22;64278;45.642;13.756;2023-04-25T12:10:20;21.20;57.60
15609;DHT22;64278;45.642;13.756;2023-04-25T12:12:47;21.20;57.50
15609;DHT22;64278;45.642;13.756;2023-04-25T12:15:18;21.20;57.40
15609;DHT22;64278;45.642;13.756;2023-04-25T12:17:48;21.20;57.30
15609;DHT22;64278;45.642;13.756;2023-04-25T12:20:16;21.20;57.30
15609;DHT22;64278;45.642;13.756;2023-04-25T12:22:44;21.20;57.30
15609;DHT22;64278;45.642;13.756;2023-04-25T12:25:17;21.20;57.20
15609;DHT22;64278;45.642;13.756;2023-04-25T12:28:19;21.20;57.20
15609;DHT22;64278;45.642;13.756;2023-04-25T12:31:02;21.20;57.10
15609;DHT22;64278;45.642;13.756;2023-04-25T12:33:33;21.20;57.00
15609;DHT22;64278;45.642;13.756;2023-04-25T12:36:00;21.20;57.00
15609;DHT22;64278;45.642;13.756;2023-04-25T12:38:30;21.20;56.90
15609;DHT22;64278;45.642;13.756;2023-04-25T12:40:57;21.20;56.90
15609;DHT22;64278;45.642;13.756;2023-04-25T12:43:23;21.20;56.90
15609;DHT22;64278;45.642;13.756;2023-04-25T12:45:54;21.20;57.60
15609;DHT22;64278;45.642;13.756;2023-04-25T12:48:20;21.20;56.90
15609;DHT22;64278;45.642;13.756;2023-04-25T12:50:47;21.20;56.80
15609;DHT22;64278;45.642;13.756;2023-04-25T12:53:17;21.20;56.80
15609;DHT22;64278;45.642;13.756;2023-04-25T12:55:43;21.20;56.80
15609;DHT22;64278;45.642;13.756;2023-04-25T12:58:11;21.20;56.70
15609;DHT22;64278;45.642;13.756;2023-04-25T13:00:37;21.20;56.70
15609;DHT22;64278;45.642;13.756;2023-04-25T13:03:03;21.20;56.60
15609;DHT22;64278;45.642;13.756;2023-04-25T13:05:30;21.20;56.60
15609;DHT22;64278;45.642;13.756;2023-04-25T13:07:55;21.20;56.60
15609;DHT22;64278;45.642;13.756;2023-04-25T13:10:21;21.30;56.70
15609;DHT22;64278;45.642;13.756;2023-04-25T13:12:47;21.30;56.70
15609;DHT22;64278;45.642;13.756;2023-04-25T13:15:13;21.30;56.60
15609;DHT22;64278;45.642;13.756;2023-04-25T13:17:41;21.40;56.60
15609;DHT22;64278;45.642;13.756;2023-04-25T13:20:07;21.40;56.50
15609;DHT22;64278;45.642;13.756;2023-04-25T13:22:35;21.50;56.40
15609;DHT22;64278;45.642;13.756;2023-04-25T13:25:06;21.60;56.50
15609;DHT22;64278;45.642;13.756;2023-04-25T13:27:32;21.70;56.50
15609;DHT22;64278;45.642;13.756;2023-04-25T13:30:03;21.70;56.50
15609;DHT22;64278;45.642;13.756;2023-04-25T13:32:38;21.80;56.50
15609;DHT22;64278;45.642;13.756;2023-04-25T13:35:06;21.80;56.50
15609;DHT22;64278;45.642;13.756;2023-04-25T13:37:32;21.90;57.30
15609;DHT22;64278;45.642;13.756;2023-04-25T13:40:02;22.00;56.60
15609;DHT22;64278;45.642;13.756;2023-04-25T13:42:30;22.00;56.60
15609;DHT22;64278;45.642;13.756;2023-04-25T13:44:56;22.00;56.60
15609;DHT22;64278;45.642;13.756;2023-04-25T13:47:22;22.10;56.60
15609;DHT22;64278;45.642;13.756;2023-04-25T13:49:49;22.10;56.60
15609;DHT22;64278;45.642;13.756;2023-04-25T13:52:15;22.20;56.50
15609;DHT22;64278;45.642;13.756;2023-04-25T13:54:41;22.20;56.50
15609;DHT22;64278;45.642;13.756;2023-04-25T13:57:06;22.30;56.40
15609;DHT22;64278;45.642;13.756;2023-04-25T13:59:32;22.30;56.40
15609;DHT22;64278;45.642;13.756;2023-04-25T14:01:58;22.30;56.30
15609;DHT22;64278;45.642;13.756;2023-04-25T14:04:24;22.30;56.20
15609;DHT22;64278;45.642;13.756;2023-04-25T14:06:50;22.40;56.20
15609;DHT22;64278;45.642;13.756;2023-04-25T14:09:17;22.40;56.10
15609;DHT22;64278;45.642;13.756;2023-04-25T14:11:43;22.40;56.10
15609;DHT22;64278;45.642;13.756;2023-04-25T14:14:09;22.50;56.00
15609;DHT22;64278;45.642;13.756;2023-04-25T14:16:35;22.50;55.90
15609;DHT22;64278;45.642;13.756;2023-04-25T14:19:01;22.50;55.80
15609;DHT22;64278;45.642;13.756;2023-04-25T14:21:29;22.50;55.80
15609;DHT22;64278;45.642;13.756;2023-04-25T14:23:57;22.60;55.80
15609;DHT22;64278;45.642;13.756;2023-04-25T14:26:22;22.60;55.80
15609;DHT22;64278;45.642;13.756;2023-04-25T14:28:48;22.60;55.70
15609;DHT22;64278;45.642;13.756;2023-04-25T14:31:13;22.60;55.70
15609;DHT22;64278;45.642;13.756;2023-04-25T14:33:39;22.70;55.70
15609;DHT22;64278;45.642;13.756;2023-04-25T14:36:07;22.70;55.60
15609;DHT22;64278;45.642;13.756;2023-04-25T14:38:33;22.70;55.50
15609;DHT22;64278;45.642;13.756;2023-04-25T14:40:59;22.70;55.40
15609;DHT22;64278;45.642;13.756;2023-04-25T14:43:25;22.70;55.40
15609;DHT22;64278;45.642;13.756;2023-04-25T14:45:50;22.80;55.30
15609;DHT22;64278;45.642;13.756;2023-04-25T14:48:17;22.80;55.30
15609;DHT22;64278;45.642;13.756;2023-04-25T14:50:45;22.80;55.20
15609;DHT22;64278;45.642;13.756;2023-04-25T14:53:11;22.80;55.20
15609;DHT22;64278;45.642;13.756;2023-04-25T14:55:37;22.80;55.10
15609;DHT22;64278;45.642;13.756;2023-04-25T14:58:03;22.90;55.10
15609;DHT22;64278;45.642;13.756;2023-04-25T15:00:29;22.90;55.00
15609;DHT22;64278;45.642;13.756;2023-04-25T15:02:56;22.90;54.90
15609;DHT22;64278;45.642;13.756;2023-04-25T15:05:22;22.90;54.70
15609;DHT22;64278;45.642;13.756;2023-04-25T15:07:48;22.90;54.80
15609;DHT22;64278;45.642;13.756;2023-04-25T15:10:13;22.90;54.70
15609;DHT22;64278;45.642;13.756;2023-04-25T15:12:44;22.90;54.70
15609;DHT22;64278;45.642;13.756;2023-04-25T15:15:11;23.00;54.70
15609;DHT22;64278;45.642;13.756;2023-04-25T15:17:43;22.90;54.60
15609;DHT22;64278;45.642;13.756;2023-04-25T15:20:11;22.90;54.60
15609;DHT22;64278;45.642;13.756;2023-04-25T15:22:38;22.90;54.60